Coitsville, Ohio
Current Conditions -  °F | °C
As of 7:32 PM on Thursday 18 Dec 2014 (Local Time) from KYNG Reporting Station
Light Snow Light Snow  
Wind Chill: 21°   Ceiling: 1300
Heat Index: 28°   Visibility: 9mi
Dew Point: 24°   Wind: 7mph
Humidity: 85%   Direction: 260°W
Pressure: 30.13"   Gusts: NA
Location:  41.0609°N, 80.5426°W
Report Text: KYNG 190032Z 26006KT 9SM -SN OVC013 M02/M04 A3013 RMK AO2 P0000 T10221044
Loading
Personal Weather Stations






























Interactive Weather Map New forecast layout! Learn more

10-Day Weather Forecast

Advertisements
Track Severe Weather on mobile